Time;durP1;ratioP1;P1;durP2;ratioP2;P2;SDS_P1;SDS_P2;PMS_P1;PMS_P2;Temp;Humidity;BMP_temperature;BMP_pressure;BME280_temperature;BME280_humidity;BME280_pressure;Samples;Min_cycle;Max_cycle;Signal;HPM_P1;HPM_P2
2021/08/20 00:00:47;;;;;;;0.73;0.73;;;19.90;99.90;;;;;;5075992;28;20066;-84
2021/08/20 00:03:13;;;;;;;0.50;0.50;;;19.90;99.90;;;;;;5076143;28;20048;-86
2021/08/20 00:05:38;;;;;;;0.38;0.38;;;19.90;99.90;;;;;;5075981;28;20426;-82
2021/08/20 00:08:04;;;;;;;0.30;0.30;;;19.90;99.90;;;;;;5075818;28;20024;-87
2021/08/20 00:10:30;;;;;;;0.30;0.30;;;19.90;99.90;;;;;;5075904;28;20036;-77
2021/08/20 00:12:56;;;;;;;3.38;0.60;;;19.80;99.90;;;;;;5075307;28;20132;-83
2021/08/20 00:15:21;;;;;;;1.23;1.17;;;19.90;99.80;;;;;;5074691;28;20052;-81
2021/08/20 00:17:47;;;;;;;0.80;0.65;;;19.90;99.90;;;;;;5075876;28;20378;-83
2021/08/20 00:20:13;;;;;;;0.38;0.38;;;19.90;99.40;;;;;;5075558;28;20020;-83
2021/08/20 00:22:39;;;;;;;0.68;0.68;;;19.80;99.90;;;;;;5093992;28;20025;-81
2021/08/20 00:25:05;;;;;;;0.28;0.28;;;19.90;99.10;;;;;;5095631;28;20046;-81
2021/08/20 00:27:30;;;;;;;1.58;0.40;;;19.80;99.90;;;;;;5095508;28;20091;-85
2021/08/20 00:29:56;;;;;;;0.00;0.00;;;19.70;99.90;;;;;;5095873;28;20028;-80
2021/08/20 00:32:22;;;;;;;0.57;0.57;;;19.80;99.90;;;;;;5095826;28;20095;-79
2021/08/20 00:34:47;;;;;;;0.80;0.77;;;19.70;99.90;;;;;;5095524;28;20050;-87
2021/08/20 00:37:14;;;;;;;1.50;0.93;;;19.80;99.90;;;;;;5095646;28;20373;-80
2021/08/20 00:39:40;;;;;;;0.43;0.43;;;19.80;99.90;;;;;;5095336;28;20095;-81
2021/08/20 00:42:06;;;;;;;0.68;0.68;;;19.80;99.90;;;;;;5095773;28;20109;-81
2021/08/20 00:44:32;;;;;;;4.50;0.90;;;19.80;99.90;;;;;;5095226;28;20389;-78
2021/08/20 00:46:58;;;;;;;0.10;0.10;;;19.80;99.90;;;;;;5095211;28;20024;-85
2021/08/20 00:49:24;;;;;;;0.65;0.52;;;19.80;99.90;;;;;;5095295;28;20389;-86
2021/08/20 00:51:51;;;;;;;0.25;0.25;;;19.80;99.90;;;;;;5095384;28;20024;-84
2021/08/20 00:54:18;;;;;;;0.05;0.05;;;19.70;99.90;;;;;;5094983;28;20016;-81
2021/08/20 00:56:45;;;;;;;2.92;1.75;;;19.80;99.90;;;;;;5094979;28;20012;-77
2021/08/20 00:59:12;;;;;;;1.20;0.50;;;19.80;99.90;;;;;;5095513;28;20034;-82
2021/08/20 01:01:38;;;;;;;0.93;0.90;;;19.80;99.90;;;;;;5094884;28;20100;-83
2021/08/20 01:04:07;;;;;;;0.28;0.28;;;19.80;99.90;;;;;;5095402;28;20439;-79
2021/08/20 01:06:37;;;;;;;3.83;1.17;;;19.70;99.90;;;;;;5095129;28;20020;-81
2021/08/20 01:09:04;;;;;;;1.45;1.05;;;19.80;99.90;;;;;;5094734;28;20024;-81
2021/08/20 01:11:30;;;;;;;0.68;0.68;;;19.80;99.90;;;;;;5094995;28;20039;-82
2021/08/20 01:13:56;;;;;;;0.60;0.60;;;19.80;99.90;;;;;;5094435;28;20055;-83
2021/08/20 01:16:22;;;;;;;0.30;0.30;;;19.90;99.90;;;;;;5094628;28;20112;-79
2021/08/20 01:18:47;;;;;;;0.40;0.40;;;19.80;99.90;;;;;;5094971;28;20087;-78
2021/08/20 01:21:16;;;;;;;0.32;0.28;;;19.80;99.90;;;;;;5094631;28;20438;-77
2021/08/20 01:23:47;;;;;;;0.80;0.80;;;19.90;99.40;;;;;;5093974;28;20171;-81
2021/08/20 01:26:12;;;;;;;0.30;0.30;;;19.80;99.90;;;;;;5094788;28;20020;-82
2021/08/20 01:28:38;;;;;;;0.43;0.43;;;19.70;99.70;;;;;;5094956;28;20088;-86
2021/08/20 01:31:09;;;;;;;0.65;0.55;;;19.80;99.00;;;;;;5094353;28;20024;-80
2021/08/20 01:33:35;;;;;;;0.52;0.52;;;19.70;99.40;;;;;;5094462;28;20495;-84
2021/08/20 01:36:02;;;;;;;0.52;0.52;;;19.70;99.40;;;;;;5094608;28;20474;-83
2021/08/20 01:38:28;;;;;;;0.60;0.60;;;19.80;98.20;;;;;;5095037;28;20450;-85
2021/08/20 01:40:55;;;;;;;0.13;0.13;;;19.70;98.80;;;;;;5094565;28;20020;-81
2021/08/20 01:43:23;;;;;;;0.60;0.60;;;19.70;98.50;;;;;;5094281;28;20032;-85
2021/08/20 01:45:50;;;;;;;1.38;1.27;;;19.70;98.70;;;;;;5094181;28;20020;-86
2021/08/20 01:48:16;;;;;;;0.85;0.85;;;19.60;98.90;;;;;;5094230;28;20412;-81
2021/08/20 01:50:43;;;;;;;0.47;0.47;;;19.70;97.80;;;;;;5094676;28;20115;-86
2021/08/20 01:53:15;;;;;;;0.38;0.38;;;19.70;98.00;;;;;;5093995;28;20105;-83
2021/08/20 01:55:41;;;;;;;1.98;1.42;;;19.60;98.40;;;;;;5094606;28;20051;-83
2021/08/20 01:58:08;;;;;;;0.25;0.25;;;19.60;97.90;;;;;;5093957;28;20027;-82
2021/08/20 02:00:34;;;;;;;1.08;0.90;;;19.50;98.00;;;;;;5094230;28;20024;-78
2021/08/20 02:03:00;;;;;;;1.42;1.33;;;19.50;98.30;;;;;;5094176;28;20072;-76
2021/08/20 02:05:26;;;;;;;1.70;1.58;;;19.50;98.00;;;;;;5094370;28;20028;-78
2021/08/20 02:07:51;;;;;;;0.57;0.57;;;19.50;98.30;;;;;;5094148;28;20035;-83
2021/08/20 02:10:17;;;;;;;0.35;0.35;;;19.40;98.00;;;;;;5094163;28;20466;-82
2021/08/20 02:12:43;;;;;;;1.42;1.42;;;19.40;98.20;;;;;;5093533;28;20048;-84
2021/08/20 02:15:09;;;;;;;1.20;0.82;;;19.40;98.50;;;;;;5093957;28;20081;-87
2021/08/20 02:17:35;;;;;;;0.70;0.70;;;19.40;98.50;;;;;;5094062;28;20024;-82
2021/08/20 02:20:00;;;;;;;1.05;1.05;;;19.30;99.10;;;;;;5093807;28;20031;-81
2021/08/20 02:22:26;;;;;;;0.15;0.15;;;19.20;98.80;;;;;;5093773;28;20031;-84
2021/08/20 02:24:54;;;;;;;2.58;0.68;;;19.20;99.30;;;;;;5094029;28;20403;-84
2021/08/20 02:27:23;;;;;;;0.40;0.40;;;19.20;99.30;;;;;;5094094;28;20081;-77
2021/08/20 02:29:49;;;;;;;1.48;0.90;;;19.20;98.90;;;;;;5092370;28;20024;-82
2021/08/20 02:32:15;;;;;;;0.60;0.60;;;19.10;99.50;;;;;;5093753;28;20089;-83
2021/08/20 02:34:41;;;;;;;1.00;1.00;;;19.00;99.90;;;;;;5095770;28;20028;-83
2021/08/20 02:37:06;;;;;;;1.13;0.73;;;19.00;99.90;;;;;;5098069;28;20370;-83
2021/08/20 02:39:33;;;;;;;0.57;0.57;;;19.00;99.90;;;;;;5097760;28;20020;-83
2021/08/20 02:41:59;;;;;;;0.77;0.30;;;19.00;99.90;;;;;;5097683;28;20020;-81
2021/08/20 02:44:25;;;;;;;1.25;1.17;;;19.10;99.90;;;;;;5097549;28;20103;-82
2021/08/20 02:46:51;;;;;;;0.52;0.52;;;19.10;99.90;;;;;;5097795;28;20106;-77
2021/08/20 02:49:16;;;;;;;0.85;0.85;;;19.10;99.90;;;;;;5097424;28;20032;-81
2021/08/20 02:51:42;;;;;;;1.02;0.63;;;19.10;99.90;;;;;;5097561;28;20024;-88
2021/08/20 02:54:07;;;;;;;1.63;1.52;;;19.10;99.70;;;;;;5097824;28;20497;-87
2021/08/20 02:56:33;;;;;;;0.82;0.82;;;19.10;99.80;;;;;;5098101;28;20026;-91
2021/08/20 02:58:59;;;;;;;0.20;0.20;;;19.10;99.90;;;;;;5097567;28;20027;-89
2021/08/20 03:01:24;;;;;;;1.25;0.93;;;19.10;99.80;;;;;;5097740;28;20375;-86
2021/08/20 03:03:52;;;;;;;0.98;0.98;;;19.10;99.80;;;;;;5097299;28;20024;-83
2021/08/20 03:06:18;;;;;;;1.27;0.90;;;19.00;99.90;;;;;;5097123;28;20089;-82
2021/08/20 03:08:43;;;;;;;1.52;1.45;;;18.90;99.90;;;;;;5097166;28;20469;-80
2021/08/20 03:11:09;;;;;;;0.98;0.98;;;18.90;99.90;;;;;;5097174;28;20033;-87
2021/08/20 03:13:35;;;;;;;0.55;0.55;;;19.00;99.90;;;;;;5096931;28;20048;-81
2021/08/20 03:16:00;;;;;;;0.73;0.73;;;18.90;99.90;;;;;;5097010;28;20050;-81
2021/08/20 03:18:26;;;;;;;1.92;1.15;;;18.90;99.90;;;;;;5096885;28;20016;-79
2021/08/20 03:20:52;;;;;;;0.38;0.38;;;18.90;99.90;;;;;;5097252;28;20024;-81
2021/08/20 03:23:17;;;;;;;1.30;1.30;;;19.00;99.30;;;;;;5096862;28;20036;-86
2021/08/20 03:25:43;;;;;;;1.05;0.80;;;19.00;99.00;;;;;;5096046;28;20123;-90
2021/08/20 03:28:09;;;;;;;1.55;1.45;;;19.00;99.00;;;;;;5096351;28;20027;-87
2021/08/20 03:30:36;;;;;;;0.93;0.93;;;19.00;99.30;;;;;;5096412;28;20492;-86
2021/08/20 03:33:03;;;;;;;3.00;1.52;;;19.00;99.40;;;;;;5095701;28;20115;-83
2021/08/20 03:35:28;;;;;;;2.65;0.88;;;19.00;99.10;;;;;;5097280;28;20024;-84
2021/08/20 03:37:54;;;;;;;0.20;0.20;;;19.10;98.90;;;;;;5097210;28;20027;-88
2021/08/20 03:40:24;;;;;;;0.93;0.93;;;19.10;98.80;;;;;;5097164;28;20214;-92
2021/08/20 03:42:51;;;;;;;0.98;0.73;;;19.10;99.20;;;;;;5097609;28;20090;-89
2021/08/20 03:45:17;;;;;;;0.55;0.55;;;19.00;99.60;;;;;;5096510;28;20031;-85
2021/08/20 03:47:43;;;;;;;0.63;0.63;;;19.10;99.30;;;;;;5096998;28;20382;-90
2021/08/20 03:50:09;;;;;;;0.90;0.88;;;19.20;98.20;;;;;;5096619;28;20028;-87
2021/08/20 03:52:34;;;;;;;0.70;0.70;;;19.20;98.50;;;;;;5096445;28;20031;-82
2021/08/20 03:55:00;;;;;;;0.40;0.40;;;19.20;98.60;;;;;;5096277;28;20028;-82
2021/08/20 03:57:26;;;;;;;1.70;0.98;;;19.20;99.40;;;;;;5096810;28;20378;-80
2021/08/20 04:00:06;;;;;;;0.98;0.98;;;19.20;99.40;;;;;;5096523;28;20050;-85
2021/08/20 04:02:32;;;;;;;1.80;1.02;;;19.30;99.50;;;;;;5096479;28;20099;-84
2021/08/20 04:04:58;;;;;;;1.55;1.45;;;19.20;99.50;;;;;;5096700;28;20063;-82
2021/08/20 04:07:24;;;;;;;0.20;0.20;;;19.40;99.00;;;;;;5096459;28;20024;-84
2021/08/20 04:09:49;;;;;;;0.50;0.47;;;19.40;99.30;;;;;;5087865;28;20046;-87
2021/08/20 04:12:15;;;;;;;2.70;0.82;;;19.50;98.50;;;;;;5075949;28;20132;-86
2021/08/20 04:14:41;;;;;;;1.35;1.27;;;19.50;98.60;;;;;;5075903;28;20017;-85
2021/08/20 04:17:07;;;;;;;1.58;0.90;;;19.50;98.80;;;;;;5076269;28;20035;-84
2021/08/20 04:19:33;;;;;;;2.33;2.13;;;19.50;99.10;;;;;;5075557;28;20025;-89
2021/08/20 04:21:58;;;;;;;1.02;1.02;;;19.50;99.20;;;;;;5075731;28;20060;-82
2021/08/20 04:24:24;;;;;;;1.75;1.60;;;19.50;99.30;;;;;;5075822;28;20112;-82
2021/08/20 04:26:50;;;;;;;0.65;0.52;;;19.60;98.80;;;;;;5075579;28;20032;-93
2021/08/20 04:29:17;;;;;;;1.13;0.95;;;19.60;98.90;;;;;;5075585;28;20025;-87
2021/08/20 04:31:42;;;;;;;1.45;1.15;;;19.60;99.10;;;;;;5075291;28;20112;-80
2021/08/20 04:34:08;;;;;;;2.90;1.90;;;19.70;98.80;;;;;;5075190;28;20170;-83
2021/08/20 04:36:34;;;;;;;1.10;1.10;;;19.70;98.70;;;;;;5075869;28;20027;-89
2021/08/20 04:38:59;;;;;;;1.30;0.98;;;19.70;98.60;;;;;;5075722;28;20543;-91
2021/08/20 04:41:25;;;;;;;1.25;1.15;;;19.70;98.80;;;;;;5075242;28;20051;-83
2021/08/20 04:43:51;;;;;;;0.70;0.70;;;19.70;99.20;;;;;;5075706;28;20407;-94
2021/08/20 04:46:17;;;;;;;0.63;0.63;;;19.80;98.20;;;;;;5075645;28;20379;-88
2021/08/20 04:48:43;;;;;;;1.00;1.00;;;19.80;98.40;;;;;;5075031;28;20025;-84
2021/08/20 04:51:08;;;;;;;2.80;0.73;;;19.80;98.20;;;;;;5076777;28;20025;-83
2021/08/20 04:53:35;;;;;;;2.63;0.75;;;19.90;98.20;;;;;;5075109;28;20032;-83
2021/08/20 04:56:01;;;;;;;2.60;1.83;;;19.90;97.70;;;;;;5074834;28;20104;-80
2021/08/20 04:58:27;;;;;;;0.65;0.65;;;19.90;97.70;;;;;;5074095;28;20530;-87
2021/08/20 05:00:53;;;;;;;1.17;1.13;;;19.90;98.20;;;;;;5074806;28;20020;-90
2021/08/20 05:03:20;;;;;;;0.98;0.90;;;19.90;98.20;;;;;;5074718;28;20021;-89
2021/08/20 05:05:46;;;;;;;0.55;0.55;;;19.90;98.60;;;;;;5074642;28;20478;-77
2021/08/20 05:08:12;;;;;;;1.27;1.17;;;19.90;98.70;;;;;;5074789;28;20035;-78
2021/08/20 05:10:38;;;;;;;2.03;1.80;;;20.00;98.50;;;;;;5075199;28;20025;-77
2021/08/20 05:13:05;;;;;;;0.65;0.65;;;20.10;98.20;;;;;;5074079;28;20044;-78
2021/08/20 05:15:31;;;;;;;1.10;1.10;;;20.10;97.90;;;;;;5088985;28;20103;-80
2021/08/20 05:17:57;;;;;;;1.08;1.00;;;20.20;97.50;;;;;;5094771;28;20423;-88
2021/08/20 05:20:23;;;;;;;0.95;0.85;;;20.20;97.50;;;;;;5094998;28;20024;-83
2021/08/20 05:22:51;;;;;;;1.05;1.05;;;20.30;97.10;;;;;;5087113;28;20035;-85
2021/08/20 05:25:19;;;;;;;2.85;0.93;;;20.30;96.50;;;;;;5088797;28;20051;-82
